Fugaku Maru — JH3428 — position and weather

sailwx.info

Track history (hours):
 
Tides and Currents Weather Stations Pressure Air Temp Water Temp Dewpoint Dewpoint Depression Visibility Wind Speed Wind Dir Waves Ship Positions

Fugaku Maru

Last reported at 2015-May-28 00:08 UTC. Time now 2015-May-29 16:14 UTC.
Position N 36°12' E 141°01'.

Length 165 m; draft 7.2 m.

Type: Cargo ship. MMSI: 431200176.

Date/timePositionNaut miles runAvg speedWind from/ knotsBaromVisibWave heightAir tempDewpointWater temp
2015-May-28 00:08N 36°12' E 141°01'3320.3
2015-May-27 22:32N 35°39' E 140°56'2121.6
2015-May-27 21:32N 35°21' E 140°42'2721.0
2015-May-27 20:16N 35°01' E 140°21'1419.5
2015-May-27 19:33N 34°53' E 140°07'1919.3
2015-May-27 18:33N 34°43' E 139°47'70 3.6
2015-May-26 23:11N 34°29' E 138°24'3421.1
2015-May-26 21:33N 34°31' E 139°05'2020.5
2015-May-26 20:33N 34°40' E 139°28'2121.0
2015-May-26 19:33N 34°47' E 139°52'2221.6
2015-May-26 18:33N 34°58' E 140°15'2020.3
2015-May-26 17:33N 35°09' E 140°35'1818.2
2015-May-26 16:33N 35°24' E 140°47'1919.0
2015-May-26 15:33N 35°41' E 140°59'2120.4
2015-May-26 14:33N 36°01' E 141°04'2121.1
2015-May-26 13:33N 36°21' E 141°08'2121.1
2015-May-26 12:33N 36°42' E 141°12'2121.0
2015-May-26 11:33N 37°03' E 141°18'  
2015-May-24 00:32N 36°05' E 140°59'2220.7
2015-May-23 23:29N 35°44' E 140°56'1920.4
2015-May-23 22:33N 35°27' E 140°46'2322.0
2015-May-23 21:31N 35°08' E 140°29'2020.9
2015-May-23 20:33N 34°56' E 140°10'2320.9
2015-May-23 19:26N 34°44' E 139°45'2720.9
2015-May-23 18:08N 34°33' E 139°15'3620.2
2015-May-23 16:20N 34°28' E 138°32'63 3.2
2015-May-22 20:33N 34°45' E 139°45'2120.4
2015-May-22 19:32N 34°54' E 140°08'2120.0
2015-May-22 18:28N 35°05' E 140°30'2218.5
2015-May-22 17:15N 35°23' E 140°45'1518.5
2015-May-22 16:25N 35°36' E 140°56'1919.9
2015-May-22 15:30N 35°54' E 141°02'  
2015-May-20 00:14N 36°32' E 141°03'1719.8
2015-May-19 23:23N 36°15' E 141°01'1719.9
2015-May-19 22:33N 35°59' E 140°58'2020.0
2015-May-19 21:33N 35°39' E 140°55'2120.7
2015-May-19 20:33N 35°21' E 140°42'2121.2
2015-May-19 19:33N 35°05' E 140°25'2020.6
2015-May-19 18:34N 34°52' E 140°06'2120.2
2015-May-19 17:30N 34°42' E 139°43'6019.9
2015-May-19 14:29N 34°28' E 138°32'  
Track history (hours):
 
Tides and Currents Weather Stations Pressure Air Temp Water Temp Dewpoint Dewpoint Depression Visibility Wind Speed Wind Dir Waves Ship Positions

Fugaku Maru

Last reported at 2015-May-28 00:08 UTC. Time now 2015-May-29 16:14 UTC.
Position N 36°12' E 141°01'.

Length 165 m; draft 7.2 m.

Type: Cargo ship. MMSI: 431200176.

Date/timePositionNaut miles runAvg speedWind from/ knotsBaromVisibWave heightAir tempDewpointWater temp
2015-May-28 00:08N 36°12' E 141°01'3320.3
2015-May-27 22:32N 35°39' E 140°56'2121.6
2015-May-27 21:32N 35°21' E 140°42'2721.0
2015-May-27 20:16N 35°01' E 140°21'1419.5
2015-May-27 19:33N 34°53' E 140°07'1919.3
2015-May-27 18:33N 34°43' E 139°47'70 3.6
2015-May-26 23:11N 34°29' E 138°24'3421.1
2015-May-26 21:33N 34°31' E 139°05'2020.5
2015-May-26 20:33N 34°40' E 139°28'2121.0
2015-May-26 19:33N 34°47' E 139°52'2221.6
2015-May-26 18:33N 34°58' E 140°15'2020.3
2015-May-26 17:33N 35°09' E 140°35'1818.2
2015-May-26 16:33N 35°24' E 140°47'1919.0
2015-May-26 15:33N 35°41' E 140°59'2120.4
2015-May-26 14:33N 36°01' E 141°04'2121.1
2015-May-26 13:33N 36°21' E 141°08'2121.1
2015-May-26 12:33N 36°42' E 141°12'2121.0
2015-May-26 11:33N 37°03' E 141°18'  
2015-May-24 00:32N 36°05' E 140°59'2220.7
2015-May-23 23:29N 35°44' E 140°56'1920.4
2015-May-23 22:33N 35°27' E 140°46'2322.0
2015-May-23 21:31N 35°08' E 140°29'2020.9
2015-May-23 20:33N 34°56' E 140°10'2320.9
2015-May-23 19:26N 34°44' E 139°45'2720.9
2015-May-23 18:08N 34°33' E 139°15'3620.2
2015-May-23 16:20N 34°28' E 138°32'63 3.2
2015-May-22 20:33N 34°45' E 139°45'2120.4
2015-May-22 19:32N 34°54' E 140°08'2120.0
2015-May-22 18:28N 35°05' E 140°30'2218.5
2015-May-22 17:15N 35°23' E 140°45'1518.5
2015-May-22 16:25N 35°36' E 140°56'1919.9
2015-May-22 15:30N 35°54' E 141°02'  
2015-May-20 00:14N 36°32' E 141°03'1719.8
2015-May-19 23:23N 36°15' E 141°01'1719.9
2015-May-19 22:33N 35°59' E 140°58'2020.0
2015-May-19 21:33N 35°39' E 140°55'2120.7
2015-May-19 20:33N 35°21' E 140°42'2121.2
2015-May-19 19:33N 35°05' E 140°25'2020.6
2015-May-19 18:34N 34°52' E 140°06'2120.2
2015-May-19 17:30N 34°42' E 139°43'6019.9
2015-May-19 14:29N 34°28' E 138°32'  

Dump ship's entire track history